sensor_id;sensor_type;location;lat;lon;timestamp;P1;durP1;ratioP1;P2;durP2;ratioP2
60730;SDS011;46580;52.114;11.674;2022-10-23T00:01:23;6.63;;;4.70;;
60730;SDS011;46580;52.114;11.674;2022-10-23T00:03:52;6.70;;;4.23;;
60730;SDS011;46580;52.114;11.674;2022-10-23T00:06:18;9.83;;;4.53;;
60730;SDS011;46580;52.114;11.674;2022-10-23T00:08:45;9.13;;;4.50;;
60730;SDS011;46580;52.114;11.674;2022-10-23T00:11:13;6.60;;;4.07;;
60730;SDS011;46580;52.114;11.674;2022-10-23T00:13:41;8.07;;;4.37;;
60730;SDS011;46580;52.114;11.674;2022-10-23T00:16:07;10.20;;;5.43;;
60730;SDS011;46580;52.114;11.674;2022-10-23T00:18:33;6.83;;;4.10;;
60730;SDS011;46580;52.114;11.674;2022-10-23T00:20:59;10.00;;;4.80;;
60730;SDS011;46580;52.114;11.674;2022-10-23T00:23:25;6.60;;;4.00;;
60730;SDS011;46580;52.114;11.674;2022-10-23T00:25:50;6.10;;;4.27;;
60730;SDS011;46580;52.114;11.674;2022-10-23T00:28:16;8.03;;;4.13;;
60730;SDS011;46580;52.114;11.674;2022-10-23T00:30:41;7.27;;;4.07;;
60730;SDS011;46580;52.114;11.674;2022-10-23T00:33:07;6.17;;;3.87;;
60730;SDS011;46580;52.114;11.674;2022-10-23T00:35:34;7.97;;;4.07;;
60730;SDS011;46580;52.114;11.674;2022-10-23T00:38:02;8.60;;;4.57;;
60730;SDS011;46580;52.114;11.674;2022-10-23T00:40:28;5.23;;;4.17;;
60730;SDS011;46580;52.114;11.674;2022-10-23T00:42:53;6.07;;;3.90;;
60730;SDS011;46580;52.114;11.674;2022-10-23T00:45:24;6.17;;;4.17;;
60730;SDS011;46580;52.114;11.674;2022-10-23T00:47:55;5.60;;;4.03;;
60730;SDS011;46580;52.114;11.674;2022-10-23T00:50:22;10.43;;;4.07;;
60730;SDS011;46580;52.114;11.674;2022-10-23T00:52:49;6.17;;;3.63;;
60730;SDS011;46580;52.114;11.674;2022-10-23T00:55:18;8.67;;;4.63;;
60730;SDS011;46580;52.114;11.674;2022-10-23T00:57:45;9.67;;;4.20;;
60730;SDS011;46580;52.114;11.674;2022-10-23T01:00:16;6.93;;;4.00;;
60730;SDS011;46580;52.114;11.674;2022-10-23T01:02:46;8.67;;;3.87;;
60730;SDS011;46580;52.114;11.674;2022-10-23T01:05:11;5.43;;;3.67;;
60730;SDS011;46580;52.114;11.674;2022-10-23T01:10:20;6.17;;;3.77;;
60730;SDS011;46580;52.114;11.674;2022-10-23T01:12:57;5.70;;;4.10;;
60730;SDS011;46580;52.114;11.674;2022-10-23T01:15:31;6.73;;;3.30;;
60730;SDS011;46580;52.114;11.674;2022-10-23T01:18:06;6.73;;;4.03;;
60730;SDS011;46580;52.114;11.674;2022-10-23T01:21:21;5.17;;;3.40;;
60730;SDS011;46580;52.114;11.674;2022-10-23T01:29:19;7.70;;;3.97;;
60730;SDS011;46580;52.114;11.674;2022-10-23T01:31:49;4.20;;;3.50;;
60730;SDS011;46580;52.114;11.674;2022-10-23T01:35:04;4.70;;;3.27;;
60730;SDS011;46580;52.114;11.674;2022-10-23T01:37:12;7.43;;;4.20;;
60730;SDS011;46580;52.114;11.674;2022-10-23T01:39:45;7.67;;;4.17;;
60730;SDS011;46580;52.114;11.674;2022-10-23T01:42:18;6.83;;;4.27;;
60730;SDS011;46580;52.114;11.674;2022-10-23T01:44:52;6.40;;;3.77;;
60730;SDS011;46580;52.114;11.674;2022-10-23T01:47:27;5.47;;;4.17;;
60730;SDS011;46580;52.114;11.674;2022-10-23T01:49:56;5.47;;;3.80;;
60730;SDS011;46580;52.114;11.674;2022-10-23T01:52:24;5.73;;;3.87;;
60730;SDS011;46580;52.114;11.674;2022-10-23T01:54:49;6.17;;;4.20;;
60730;SDS011;46580;52.114;11.674;2022-10-23T01:57:17;7.03;;;4.17;;
60730;SDS011;46580;52.114;11.674;2022-10-23T01:59:47;7.40;;;4.20;;
60730;SDS011;46580;52.114;11.674;2022-10-23T02:02:17;5.33;;;4.23;;
60730;SDS011;46580;52.114;11.674;2022-10-23T02:04:48;6.30;;;4.00;;
60730;SDS011;46580;52.114;11.674;2022-10-23T02:07:19;7.47;;;4.30;;
60730;SDS011;46580;52.114;11.674;2022-10-23T02:09:44;8.60;;;4.47;;
60730;SDS011;46580;52.114;11.674;2022-10-23T02:12:14;4.57;;;3.63;;
60730;SDS011;46580;52.114;11.674;2022-10-23T02:14:50;7.53;;;4.17;;
60730;SDS011;46580;52.114;11.674;2022-10-23T02:20:23;5.47;;;4.27;;
60730;SDS011;46580;52.114;11.674;2022-10-23T02:25:54;5.37;;;4.20;;
60730;SDS011;46580;52.114;11.674;2022-10-23T02:28:29;9.43;;;4.53;;
60730;SDS011;46580;52.114;11.674;2022-10-23T02:31:01;5.83;;;4.47;;
60730;SDS011;46580;52.114;11.674;2022-10-23T02:33:28;6.07;;;3.90;;
60730;SDS011;46580;52.114;11.674;2022-10-23T02:35:55;9.07;;;5.30;;
60730;SDS011;46580;52.114;11.674;2022-10-23T02:38:34;7.43;;;4.57;;
60730;SDS011;46580;52.114;11.674;2022-10-23T02:41:07;6.23;;;4.63;;
60730;SDS011;46580;52.114;11.674;2022-10-23T02:46:20;6.60;;;4.27;;
60730;SDS011;46580;52.114;11.674;2022-10-23T02:49:35;9.57;;;4.60;;
60730;SDS011;46580;52.114;11.674;2022-10-23T03:00:38;7.50;;;4.33;;
60730;SDS011;46580;52.114;11.674;2022-10-23T03:03:13;4.73;;;3.93;;
60730;SDS011;46580;52.114;11.674;2022-10-23T03:05:43;7.00;;;4.30;;
60730;SDS011;46580;52.114;11.674;2022-10-23T03:08:10;5.93;;;4.20;;
60730;SDS011;46580;52.114;11.674;2022-10-23T03:10:38;7.00;;;4.30;;
60730;SDS011;46580;52.114;11.674;2022-10-23T03:13:04;7.10;;;3.80;;
60730;SDS011;46580;52.114;11.674;2022-10-23T03:15:29;5.80;;;3.80;;
60730;SDS011;46580;52.114;11.674;2022-10-23T03:17:54;4.57;;;3.63;;
60730;SDS011;46580;52.114;11.674;2022-10-23T03:20:20;6.20;;;3.93;;
60730;SDS011;46580;52.114;11.674;2022-10-23T03:22:45;4.77;;;4.07;;
60730;SDS011;46580;52.114;11.674;2022-10-23T03:25:11;4.40;;;3.83;;
60730;SDS011;46580;52.114;11.674;2022-10-23T03:27:36;7.80;;;4.17;;
60730;SDS011;46580;52.114;11.674;2022-10-23T03:30:02;5.10;;;4.27;;
60730;SDS011;46580;52.114;11.674;2022-10-23T03:32:28;4.90;;;3.77;;
60730;SDS011;46580;52.114;11.674;2022-10-23T03:34:54;6.03;;;4.10;;
60730;SDS011;46580;52.114;11.674;2022-10-23T03:37:19;6.67;;;4.80;;
60730;SDS011;46580;52.114;11.674;2022-10-23T03:39:44;9.00;;;4.40;;
60730;SDS011;46580;52.114;11.674;2022-10-23T03:42:10;7.93;;;4.53;;
60730;SDS011;46580;52.114;11.674;2022-10-23T03:44:35;5.57;;;4.17;;
60730;SDS011;46580;52.114;11.674;2022-10-23T03:47:01;4.83;;;3.90;;
60730;SDS011;46580;52.114;11.674;2022-10-23T03:49:26;5.57;;;3.80;;
60730;SDS011;46580;52.114;11.674;2022-10-23T03:51:52;4.13;;;3.57;;
60730;SDS011;46580;52.114;11.674;2022-10-23T03:54:21;5.07;;;4.03;;
60730;SDS011;46580;52.114;11.674;2022-10-23T03:56:47;4.47;;;3.23;;
60730;SDS011;46580;52.114;11.674;2022-10-23T03:59:13;4.13;;;3.33;;
60730;SDS011;46580;52.114;11.674;2022-10-23T04:01:38;5.70;;;3.93;;
60730;SDS011;46580;52.114;11.674;2022-10-23T04:04:04;5.13;;;3.43;;
60730;SDS011;46580;52.114;11.674;2022-10-23T04:06:29;5.83;;;3.87;;
60730;SDS011;46580;52.114;11.674;2022-10-23T04:08:54;4.53;;;3.63;;
60730;SDS011;46580;52.114;11.674;2022-10-23T04:11:20;4.97;;;3.50;;
60730;SDS011;46580;52.114;11.674;2022-10-23T04:13:45;4.53;;;3.50;;
60730;SDS011;46580;52.114;11.674;2022-10-23T04:16:10;6.60;;;3.50;;
60730;SDS011;46580;52.114;11.674;2022-10-23T04:18:36;5.97;;;3.63;;
60730;SDS011;46580;52.114;11.674;2022-10-23T04:21:01;5.70;;;3.70;;
60730;SDS011;46580;52.114;11.674;2022-10-23T04:23:27;5.40;;;4.00;;
60730;SDS011;46580;52.114;11.674;2022-10-23T04:25:54;6.60;;;3.93;;
60730;SDS011;46580;52.114;11.674;2022-10-23T04:28:21;4.60;;;3.43;;
60730;SDS011;46580;52.114;11.674;2022-10-23T04:30:47;5.03;;;3.37;;
60730;SDS011;46580;52.114;11.674;2022-10-23T04:33:12;5.87;;;3.63;;
60730;SDS011;46580;52.114;11.674;2022-10-23T04:35:38;6.03;;;3.37;;
60730;SDS011;46580;52.114;11.674;2022-10-23T04:38:03;5.03;;;3.23;;
60730;SDS011;46580;52.114;11.674;2022-10-23T04:40:28;6.93;;;3.50;;
60730;SDS011;46580;52.114;11.674;2022-10-23T04:42:54;4.60;;;3.77;;
60730;SDS011;46580;52.114;11.674;2022-10-23T04:45:19;4.87;;;3.20;;
60730;SDS011;46580;52.114;11.674;2022-10-23T04:47:44;3.67;;;2.90;;
60730;SDS011;46580;52.114;11.674;2022-10-23T04:50:10;3.20;;;2.80;;
60730;SDS011;46580;52.114;11.674;2022-10-23T04:52:35;4.33;;;3.07;;
60730;SDS011;46580;52.114;11.674;2022-10-23T04:55:01;3.83;;;3.47;;
60730;SDS011;46580;52.114;11.674;2022-10-23T04:57:26;3.80;;;2.83;;
60730;SDS011;46580;52.114;11.674;2022-10-23T04:59:51;4.47;;;3.33;;
60730;SDS011;46580;52.114;11.674;2022-10-23T05:02:17;4.13;;;3.23;;
60730;SDS011;46580;52.114;11.674;2022-10-23T05:04:42;6.83;;;3.17;;
60730;SDS011;46580;52.114;11.674;2022-10-23T05:07:07;3.83;;;3.03;;
60730;SDS011;46580;52.114;11.674;2022-10-23T05:09:33;3.83;;;3.10;;
60730;SDS011;46580;52.114;11.674;2022-10-23T05:11:58;4.33;;;3.00;;
60730;SDS011;46580;52.114;11.674;2022-10-23T05:14:23;3.77;;;2.97;;
60730;SDS011;46580;52.114;11.674;2022-10-23T05:16:51;3.03;;;2.57;;
60730;SDS011;46580;52.114;11.674;2022-10-23T05:19:22;2.60;;;2.33;;
60730;SDS011;46580;52.114;11.674;2022-10-23T05:21:51;2.30;;;2.10;;
60730;SDS011;46580;52.114;11.674;2022-10-23T05:24:20;4.10;;;2.50;;
60730;SDS011;46580;52.114;11.674;2022-10-23T05:26:47;3.83;;;2.50;;
60730;SDS011;46580;52.114;11.674;2022-10-23T05:29:15;5.03;;;2.50;;
60730;SDS011;46580;52.114;11.674;2022-10-23T05:31:42;3.77;;;2.60;;
60730;SDS011;46580;52.114;11.674;2022-10-23T05:34:07;4.13;;;2.40;;
60730;SDS011;46580;52.114;11.674;2022-10-23T05:36:34;7.23;;;3.23;;
60730;SDS011;46580;52.114;11.674;2022-10-23T05:39:01;5.30;;;3.40;;
60730;SDS011;46580;52.114;11.674;2022-10-23T05:41:26;6.43;;;3.60;;
60730;SDS011;46580;52.114;11.674;2022-10-23T05:43:52;7.10;;;3.90;;
60730;SDS011;46580;52.114;11.674;2022-10-23T05:46:18;4.07;;;3.23;;
60730;SDS011;46580;52.114;11.674;2022-10-23T05:48:43;5.20;;;3.47;;
60730;SDS011;46580;52.114;11.674;2022-10-23T05:51:09;5.87;;;3.47;;
60730;SDS011;46580;52.114;11.674;2022-10-23T05:53:35;6.10;;;3.57;;
60730;SDS011;46580;52.114;11.674;2022-10-23T05:56:07;6.87;;;3.90;;
60730;SDS011;46580;52.114;11.674;2022-10-23T05:58:33;4.80;;;3.60;;
60730;SDS011;46580;52.114;11.674;2022-10-23T06:00:59;6.93;;;3.63;;
60730;SDS011;46580;52.114;11.674;2022-10-23T06:03:28;10.33;;;4.07;;
60730;SDS011;46580;52.114;11.674;2022-10-23T06:05:53;5.67;;;4.23;;
60730;SDS011;46580;52.114;11.674;2022-10-23T06:08:19;8.17;;;4.97;;
60730;SDS011;46580;52.114;11.674;2022-10-23T06:10:44;7.73;;;5.43;;
60730;SDS011;46580;52.114;11.674;2022-10-23T06:13:10;6.90;;;5.23;;
60730;SDS011;46580;52.114;11.674;2022-10-23T06:15:35;6.63;;;4.87;;
60730;SDS011;46580;52.114;11.674;2022-10-23T06:18:01;10.63;;;4.90;;
60730;SDS011;46580;52.114;11.674;2022-10-23T06:20:28;11.30;;;4.60;;
60730;SDS011;46580;52.114;11.674;2022-10-23T06:22:53;7.70;;;4.40;;
60730;SDS011;46580;52.114;11.674;2022-10-23T06:25:19;7.57;;;5.00;;
60730;SDS011;46580;52.114;11.674;2022-10-23T06:27:44;10.20;;;4.70;;
60730;SDS011;46580;52.114;11.674;2022-10-23T06:30:09;10.47;;;5.47;;
60730;SDS011;46580;52.114;11.674;2022-10-23T06:32:35;16.93;;;4.93;;
60730;SDS011;46580;52.114;11.674;2022-10-23T06:35:01;9.00;;;5.27;;
60730;SDS011;46580;52.114;11.674;2022-10-23T06:37:32;7.80;;;4.67;;
60730;SDS011;46580;52.114;11.674;2022-10-23T06:39:58;9.37;;;5.07;;
60730;SDS011;46580;52.114;11.674;2022-10-23T06:42:23;7.63;;;4.60;;
60730;SDS011;46580;52.114;11.674;2022-10-23T06:44:48;9.93;;;5.23;;
60730;SDS011;46580;52.114;11.674;2022-10-23T06:47:14;7.63;;;4.30;;
60730;SDS011;46580;52.114;11.674;2022-10-23T06:49:39;5.80;;;4.17;;
60730;SDS011;46580;52.114;11.674;2022-10-23T06:52:05;7.67;;;4.63;;
60730;SDS011;46580;52.114;11.674;2022-10-23T06:54:30;8.60;;;4.73;;
60730;SDS011;46580;52.114;11.674;2022-10-23T06:56:56;10.70;;;4.83;;
60730;SDS011;46580;52.114;11.674;2022-10-23T06:59:21;7.63;;;4.80;;
60730;SDS011;46580;52.114;11.674;2022-10-23T07:01:47;11.00;;;5.07;;
60730;SDS011;46580;52.114;11.674;2022-10-23T07:04:12;4.77;;;3.83;;
60730;SDS011;46580;52.114;11.674;2022-10-23T07:06:39;8.17;;;4.77;;
60730;SDS011;46580;52.114;11.674;2022-10-23T07:09:05;9.53;;;5.20;;
60730;SDS011;46580;52.114;11.674;2022-10-23T07:11:30;8.93;;;4.83;;
60730;SDS011;46580;52.114;11.674;2022-10-23T07:13:56;8.97;;;4.73;;
60730;SDS011;46580;52.114;11.674;2022-10-23T07:16:24;8.03;;;4.87;;
60730;SDS011;46580;52.114;11.674;2022-10-23T07:18:57;6.60;;;4.50;;
60730;SDS011;46580;52.114;11.674;2022-10-23T07:21:27;6.43;;;4.27;;
60730;SDS011;46580;52.114;11.674;2022-10-23T07:23:54;7.83;;;5.00;;
60730;SDS011;46580;52.114;11.674;2022-10-23T07:26:19;7.43;;;4.80;;
60730;SDS011;46580;52.114;11.674;2022-10-23T07:28:46;5.13;;;4.23;;
60730;SDS011;46580;52.114;11.674;2022-10-23T07:31:12;6.43;;;4.30;;
60730;SDS011;46580;52.114;11.674;2022-10-23T07:33:38;4.73;;;4.00;;
60730;SDS011;46580;52.114;11.674;2022-10-23T07:36:04;7.60;;;5.03;;
60730;SDS011;46580;52.114;11.674;2022-10-23T07:38:30;6.70;;;5.27;;
60730;SDS011;46580;52.114;11.674;2022-10-23T07:40:56;8.20;;;5.47;;
60730;SDS011;46580;52.114;11.674;2022-10-23T07:43:22;5.77;;;4.80;;
60730;SDS011;46580;52.114;11.674;2022-10-23T07:45:48;8.20;;;5.20;;
60730;SDS011;46580;52.114;11.674;2022-10-23T07:48:14;6.53;;;4.60;;
60730;SDS011;46580;52.114;11.674;2022-10-23T07:50:49;8.73;;;4.90;;
60730;SDS011;46580;52.114;11.674;2022-10-23T07:53:23;7.53;;;4.87;;
60730;SDS011;46580;52.114;11.674;2022-10-23T07:55:56;8.30;;;5.87;;
60730;SDS011;46580;52.114;11.674;2022-10-23T07:58:27;10.40;;;5.80;;
60730;SDS011;46580;52.114;11.674;2022-10-23T08:00:59;9.10;;;6.40;;
60730;SDS011;46580;52.114;11.674;2022-10-23T08:03:28;10.57;;;6.23;;
60730;SDS011;46580;52.114;11.674;2022-10-23T08:05:58;11.60;;;6.37;;
60730;SDS011;46580;52.114;11.674;2022-10-23T08:08:25;11.07;;;6.13;;
60730;SDS011;46580;52.114;11.674;2022-10-23T08:10:52;9.70;;;6.40;;
60730;SDS011;46580;52.114;11.674;2022-10-23T08:13:25;8.17;;;6.80;;
60730;SDS011;46580;52.114;11.674;2022-10-23T08:15:51;13.17;;;6.63;;
60730;SDS011;46580;52.114;11.674;2022-10-23T08:18:22;9.77;;;5.87;;
60730;SDS011;46580;52.114;11.674;2022-10-23T08:20:49;11.77;;;6.70;;
60730;SDS011;46580;52.114;11.674;2022-10-23T08:23:17;17.37;;;6.40;;
60730;SDS011;46580;52.114;11.674;2022-10-23T08:25:46;11.10;;;6.40;;
60730;SDS011;46580;52.114;11.674;2022-10-23T08:28:11;9.63;;;6.63;;
60730;SDS011;46580;52.114;11.674;2022-10-23T08:30:38;10.80;;;6.53;;
60730;SDS011;46580;52.114;11.674;2022-10-23T08:33:05;10.17;;;6.90;;
60730;SDS011;46580;52.114;11.674;2022-10-23T08:35:34;9.73;;;7.37;;
60730;SDS011;46580;52.114;11.674;2022-10-23T08:38:01;11.73;;;8.47;;
60730;SDS011;46580;52.114;11.674;2022-10-23T08:40:27;12.90;;;7.60;;
60730;SDS011;46580;52.114;11.674;2022-10-23T08:42:56;12.47;;;7.23;;
60730;SDS011;46580;52.114;11.674;2022-10-23T08:45:27;12.13;;;7.63;;
60730;SDS011;46580;52.114;11.674;2022-10-23T08:47:57;12.47;;;7.30;;
60730;SDS011;46580;52.114;11.674;2022-10-23T08:50:35;12.10;;;7.37;;
60730;SDS011;46580;52.114;11.674;2022-10-23T08:53:24;16.03;;;7.33;;
60730;SDS011;46580;52.114;11.674;2022-10-23T08:56:20;12.57;;;7.73;;
60730;SDS011;46580;52.114;11.674;2022-10-23T08:59:00;12.93;;;7.47;;
60730;SDS011;46580;52.114;11.674;2022-10-23T09:01:36;10.33;;;7.10;;
60730;SDS011;46580;52.114;11.674;2022-10-23T09:04:05;12.80;;;7.07;;
60730;SDS011;46580;52.114;11.674;2022-10-23T09:06:35;12.13;;;7.47;;
60730;SDS011;46580;52.114;11.674;2022-10-23T09:19:35;16.37;;;7.63;;
60730;SDS011;46580;52.114;11.674;2022-10-23T09:22:01;9.67;;;6.97;;
60730;SDS011;46580;52.114;11.674;2022-10-23T09:24:26;10.30;;;6.70;;
60730;SDS011;46580;52.114;11.674;2022-10-23T09:26:56;12.17;;;7.13;;
60730;SDS011;46580;52.114;11.674;2022-10-23T09:31:55;11.10;;;6.97;;
60730;SDS011;46580;52.114;11.674;2022-10-23T09:34:25;9.87;;;6.63;;
60730;SDS011;46580;52.114;11.674;2022-10-23T09:37:02;8.63;;;6.30;;
60730;SDS011;46580;52.114;11.674;2022-10-23T09:39:41;8.57;;;5.97;;
60730;SDS011;46580;52.114;11.674;2022-10-23T09:42:19;12.90;;;5.90;;
60730;SDS011;46580;52.114;11.674;2022-10-23T09:44:48;10.50;;;5.97;;
60730;SDS011;46580;52.114;11.674;2022-10-23T09:47:15;8.60;;;5.67;;
60730;SDS011;46580;52.114;11.674;2022-10-23T09:49:54;7.50;;;5.53;;
60730;SDS011;46580;52.114;11.674;2022-10-23T09:52:39;8.03;;;5.30;;
60730;SDS011;46580;52.114;11.674;2022-10-23T09:57:59;6.63;;;5.33;;
60730;SDS011;46580;52.114;11.674;2022-10-23T10:00:25;9.00;;;5.87;;
60730;SDS011;46580;52.114;11.674;2022-10-23T10:02:58;8.10;;;5.87;;
60730;SDS011;46580;52.114;11.674;2022-10-23T10:05:29;7.90;;;5.60;;
60730;SDS011;46580;52.114;11.674;2022-10-23T10:11:25;9.83;;;5.93;;
60730;SDS011;46580;52.114;11.674;2022-10-23T10:26:10;7.93;;;6.67;;
60730;SDS011;46580;52.114;11.674;2022-10-23T10:34:28;8.93;;;6.10;;
60730;SDS011;46580;52.114;11.674;2022-10-23T10:37:12;8.27;;;5.43;;
60730;SDS011;46580;52.114;11.674;2022-10-23T10:40:04;8.20;;;5.13;;
60730;SDS011;46580;52.114;11.674;2022-10-23T10:51:00;9.33;;;4.80;;
60730;SDS011;46580;52.114;11.674;2022-10-23T10:56:10;11.53;;;4.50;;
60730;SDS011;46580;52.114;11.674;2022-10-23T10:58:49;7.97;;;4.70;;
60730;SDS011;46580;52.114;11.674;2022-10-23T11:01:26;9.83;;;4.73;;
60730;SDS011;46580;52.114;11.674;2022-10-23T11:04:08;7.90;;;4.63;;
60730;SDS011;46580;52.114;11.674;2022-10-23T11:06:38;8.23;;;4.60;;
60730;SDS011;46580;52.114;11.674;2022-10-23T11:09:16;12.77;;;4.37;;
60730;SDS011;46580;52.114;11.674;2022-10-23T11:11:51;5.90;;;4.07;;
60730;SDS011;46580;52.114;11.674;2022-10-23T11:14:17;6.47;;;4.20;;
60730;SDS011;46580;52.114;11.674;2022-10-23T11:16:46;8.70;;;3.97;;
60730;SDS011;46580;52.114;11.674;2022-10-23T11:19:25;7.87;;;3.47;;
60730;SDS011;46580;52.114;11.674;2022-10-23T11:21:59;8.83;;;3.70;;
60730;SDS011;46580;52.114;11.674;2022-10-23T11:36:05;5.40;;;3.30;;
60730;SDS011;46580;52.114;11.674;2022-10-23T11:40:33;10.23;;;3.80;;
60730;SDS011;46580;52.114;11.674;2022-10-23T11:42:58;8.03;;;3.30;;
60730;SDS011;46580;52.114;11.674;2022-10-23T11:48:02;7.27;;;3.37;;
60730;SDS011;46580;52.114;11.674;2022-10-23T11:50:30;5.53;;;3.23;;
60730;SDS011;46580;52.114;11.674;2022-10-23T11:52:58;8.67;;;3.53;;
60730;SDS011;46580;52.114;11.674;2022-10-23T11:55:28;8.43;;;3.17;;
60730;SDS011;46580;52.114;11.674;2022-10-23T12:00:38;4.73;;;2.83;;
60730;SDS011;46580;52.114;11.674;2022-10-23T12:03:04;4.63;;;2.83;;
60730;SDS011;46580;52.114;11.674;2022-10-23T12:05:39;5.27;;;2.47;;
60730;SDS011;46580;52.114;11.674;2022-10-23T12:08:28;4.47;;;2.60;;
60730;SDS011;46580;52.114;11.674;2022-10-23T12:10:53;4.97;;;2.30;;
60730;SDS011;46580;52.114;11.674;2022-10-23T12:13:52;5.87;;;2.93;;
60730;SDS011;46580;52.114;11.674;2022-10-23T12:16:14;7.17;;;2.40;;
60730;SDS011;46580;52.114;11.674;2022-10-23T12:18:46;6.83;;;2.30;;
60730;SDS011;46580;52.114;11.674;2022-10-23T12:21:21;5.77;;;2.60;;
60730;SDS011;46580;52.114;11.674;2022-10-23T12:29:23;5.13;;;2.37;;
60730;SDS011;46580;52.114;11.674;2022-10-23T12:37:56;4.00;;;2.23;;
60730;SDS011;46580;52.114;11.674;2022-10-23T12:40:31;5.77;;;2.27;;
60730;SDS011;46580;52.114;11.674;2022-10-23T12:42:57;7.10;;;2.60;;
60730;SDS011;46580;52.114;11.674;2022-10-23T12:45:46;6.33;;;2.33;;
60730;SDS011;46580;52.114;11.674;2022-10-23T12:48:20;5.43;;;1.97;;
60730;SDS011;46580;52.114;11.674;2022-10-23T12:50:48;5.17;;;2.47;;
60730;SDS011;46580;52.114;11.674;2022-10-23T12:53:19;4.43;;;2.20;;
60730;SDS011;46580;52.114;11.674;2022-10-23T12:58:26;10.80;;;7.23;;
60730;SDS011;46580;52.114;11.674;2022-10-23T13:00:59;5.67;;;2.80;;
60730;SDS011;46580;52.114;11.674;2022-10-23T13:03:27;4.90;;;2.50;;
60730;SDS011;46580;52.114;11.674;2022-10-23T13:05:57;6.13;;;2.60;;
60730;SDS011;46580;52.114;11.674;2022-10-23T13:08:37;5.70;;;2.50;;
60730;SDS011;46580;52.114;11.674;2022-10-23T13:11:06;2.80;;;2.00;;
60730;SDS011;46580;52.114;11.674;2022-10-23T13:13:37;5.50;;;2.10;;
60730;SDS011;46580;52.114;11.674;2022-10-23T13:16:14;5.73;;;2.33;;
60730;SDS011;46580;52.114;11.674;2022-10-23T13:18:41;3.80;;;2.57;;
60730;SDS011;46580;52.114;11.674;2022-10-23T13:21:09;5.50;;;3.00;;
60730;SDS011;46580;52.114;11.674;2022-10-23T13:23:44;6.30;;;3.43;;
60730;SDS011;46580;52.114;11.674;2022-10-23T13:26:23;12.57;;;5.47;;
60730;SDS011;46580;52.114;11.674;2022-10-23T13:28:54;6.23;;;4.60;;
60730;SDS011;46580;52.114;11.674;2022-10-23T13:31:31;9.23;;;4.60;;
60730;SDS011;46580;52.114;11.674;2022-10-23T13:36:27;4.40;;;2.10;;
60730;SDS011;46580;52.114;11.674;2022-10-23T13:39:12;5.63;;;2.07;;
60730;SDS011;46580;52.114;11.674;2022-10-23T13:41:40;5.90;;;1.93;;
60730;SDS011;46580;52.114;11.674;2022-10-23T13:44:18;4.80;;;1.40;;
60730;SDS011;46580;52.114;11.674;2022-10-23T13:46:45;2.80;;;1.83;;
60730;SDS011;46580;52.114;11.674;2022-10-23T13:49:12;6.13;;;1.70;;
60730;SDS011;46580;52.114;11.674;2022-10-23T13:51:44;3.83;;;1.63;;
60730;SDS011;46580;52.114;11.674;2022-10-23T13:54:14;7.33;;;1.80;;
60730;SDS011;46580;52.114;11.674;2022-10-23T13:56:41;8.23;;;1.97;;
60730;SDS011;46580;52.114;11.674;2022-10-23T13:59:07;3.03;;;1.70;;
60730;SDS011;46580;52.114;11.674;2022-10-23T14:01:34;3.80;;;1.90;;
60730;SDS011;46580;52.114;11.674;2022-10-23T14:04:00;2.23;;;1.50;;
60730;SDS011;46580;52.114;11.674;2022-10-23T14:06:31;2.87;;;1.40;;
60730;SDS011;46580;52.114;11.674;2022-10-23T14:08:57;4.83;;;1.90;;
60730;SDS011;46580;52.114;11.674;2022-10-23T14:11:23;9.87;;;2.63;;
60730;SDS011;46580;52.114;11.674;2022-10-23T14:13:49;3.50;;;1.73;;
60730;SDS011;46580;52.114;11.674;2022-10-23T14:16:17;4.50;;;1.50;;
60730;SDS011;46580;52.114;11.674;2022-10-23T14:18:47;2.97;;;1.53;;
60730;SDS011;46580;52.114;11.674;2022-10-23T14:21:14;2.23;;;1.23;;
60730;SDS011;46580;52.114;11.674;2022-10-23T14:23:41;5.40;;;1.77;;
60730;SDS011;46580;52.114;11.674;2022-10-23T14:26:07;3.97;;;1.70;;
60730;SDS011;46580;52.114;11.674;2022-10-23T14:28:34;4.20;;;1.60;;
60730;SDS011;46580;52.114;11.674;2022-10-23T14:31:04;3.10;;;1.43;;
60730;SDS011;46580;52.114;11.674;2022-10-23T14:33:34;3.73;;;1.57;;
60730;SDS011;46580;52.114;11.674;2022-10-23T14:35:59;4.37;;;1.57;;
60730;SDS011;46580;52.114;11.674;2022-10-23T14:38:25;3.27;;;1.70;;
60730;SDS011;46580;52.114;11.674;2022-10-23T14:40:51;2.40;;;1.80;;
60730;SDS011;46580;52.114;11.674;2022-10-23T14:43:17;4.07;;;1.77;;
60730;SDS011;46580;52.114;11.674;2022-10-23T14:45:42;5.63;;;1.20;;
60730;SDS011;46580;52.114;11.674;2022-10-23T14:48:08;2.20;;;1.70;;
60730;SDS011;46580;52.114;11.674;2022-10-23T14:50:34;3.27;;;1.30;;
60730;SDS011;46580;52.114;11.674;2022-10-23T14:53:01;2.27;;;1.77;;
60730;SDS011;46580;52.114;11.674;2022-10-23T14:55:26;2.27;;;1.77;;
60730;SDS011;46580;52.114;11.674;2022-10-23T14:57:53;6.90;;;1.80;;
60730;SDS011;46580;52.114;11.674;2022-10-23T15:00:19;4.97;;;1.60;;
60730;SDS011;46580;52.114;11.674;2022-10-23T15:02:44;2.73;;;1.60;;
60730;SDS011;46580;52.114;11.674;2022-10-23T15:05:10;4.33;;;1.33;;
60730;SDS011;46580;52.114;11.674;2022-10-23T15:07:36;3.60;;;1.50;;
60730;SDS011;46580;52.114;11.674;2022-10-23T15:10:02;3.13;;;1.87;;
60730;SDS011;46580;52.114;11.674;2022-10-23T15:12:28;4.07;;;1.70;;
60730;SDS011;46580;52.114;11.674;2022-10-23T15:14:54;3.83;;;1.80;;
60730;SDS011;46580;52.114;11.674;2022-10-23T15:17:19;3.00;;;1.60;;
60730;SDS011;46580;52.114;11.674;2022-10-23T15:19:44;2.07;;;1.40;;
60730;SDS011;46580;52.114;11.674;2022-10-23T15:22:10;3.70;;;1.53;;
60730;SDS011;46580;52.114;11.674;2022-10-23T15:24:35;3.10;;;1.40;;
60730;SDS011;46580;52.114;11.674;2022-10-23T15:27:00;1.80;;;1.50;;
60730;SDS011;46580;52.114;11.674;2022-10-23T15:29:26;4.03;;;1.63;;
60730;SDS011;46580;52.114;11.674;2022-10-23T15:31:56;2.63;;;1.40;;
60730;SDS011;46580;52.114;11.674;2022-10-23T15:34:23;2.57;;;1.60;;
60730;SDS011;46580;52.114;11.674;2022-10-23T15:36:50;3.37;;;1.80;;
60730;SDS011;46580;52.114;11.674;2022-10-23T15:39:18;2.53;;;1.50;;
60730;SDS011;46580;52.114;11.674;2022-10-23T15:41:47;3.50;;;2.20;;
60730;SDS011;46580;52.114;11.674;2022-10-23T15:44:15;2.00;;;1.67;;
60730;SDS011;46580;52.114;11.674;2022-10-23T15:46:42;3.77;;;1.87;;
60730;SDS011;46580;52.114;11.674;2022-10-23T15:49:08;3.03;;;1.90;;
60730;SDS011;46580;52.114;11.674;2022-10-23T15:51:33;2.90;;;1.57;;
60730;SDS011;46580;52.114;11.674;2022-10-23T15:54:00;2.20;;;1.87;;
60730;SDS011;46580;52.114;11.674;2022-10-23T15:56:26;1.97;;;1.43;;
60730;SDS011;46580;52.114;11.674;2022-10-23T15:58:51;3.43;;;1.83;;
60730;SDS011;46580;52.114;11.674;2022-10-23T16:01:17;3.60;;;3.10;;
60730;SDS011;46580;52.114;11.674;2022-10-23T16:03:43;4.00;;;1.93;;
60730;SDS011;46580;52.114;11.674;2022-10-23T16:06:10;3.13;;;1.40;;
60730;SDS011;46580;52.114;11.674;2022-10-23T16:08:37;4.30;;;1.47;;
60730;SDS011;46580;52.114;11.674;2022-10-23T16:11:04;2.83;;;1.50;;
60730;SDS011;46580;52.114;11.674;2022-10-23T16:13:38;2.03;;;1.50;;
60730;SDS011;46580;52.114;11.674;2022-10-23T16:16:03;1.83;;;1.37;;
60730;SDS011;46580;52.114;11.674;2022-10-23T16:18:28;3.50;;;1.70;;
60730;SDS011;46580;52.114;11.674;2022-10-23T16:20:54;3.17;;;1.40;;
60730;SDS011;46580;52.114;11.674;2022-10-23T16:23:19;3.80;;;1.60;;
60730;SDS011;46580;52.114;11.674;2022-10-23T16:25:45;3.00;;;1.53;;
60730;SDS011;46580;52.114;11.674;2022-10-23T16:28:10;1.93;;;1.63;;
60730;SDS011;46580;52.114;11.674;2022-10-23T16:30:39;2.27;;;1.10;;
60730;SDS011;46580;52.114;11.674;2022-10-23T16:33:06;3.00;;;1.50;;